sensor_id;sensor_type;location;lat;lon;timestamp;temperature;humidity
15844;DHT22;50807;52.436;13.346;2023-07-09T00:00:21;25.50;47.70
15844;DHT22;50807;52.436;13.346;2023-07-09T00:00:52;25.50;47.80
15844;DHT22;50807;52.436;13.346;2023-07-09T00:01:24;25.50;47.70
15844;DHT22;50807;52.436;13.346;2023-07-09T00:01:54;25.50;47.80
15844;DHT22;50807;52.436;13.346;2023-07-09T00:02:27;25.50;47.80
15844;DHT22;50807;52.436;13.346;2023-07-09T00:02:58;25.50;47.90
15844;DHT22;50807;52.436;13.346;2023-07-09T00:03:29;25.50;47.90
15844;DHT22;50807;52.436;13.346;2023-07-09T00:04:00;25.50;47.90
15844;DHT22;50807;52.436;13.346;2023-07-09T00:04:31;25.50;48.00
15844;DHT22;50807;52.436;13.346;2023-07-09T00:05:04;25.50;48.00
15844;DHT22;50807;52.436;13.346;2023-07-09T00:05:36;25.40;48.00
15844;DHT22;50807;52.436;13.346;2023-07-09T00:06:08;25.50;48.10
15844;DHT22;50807;52.436;13.346;2023-07-09T00:06:40;25.40;48.10
15844;DHT22;50807;52.436;13.346;2023-07-09T00:07:17;25.40;48.10
15844;DHT22;50807;52.436;13.346;2023-07-09T00:07:50;25.40;48.20
15844;DHT22;50807;52.436;13.346;2023-07-09T00:08:28;25.40;48.20
15844;DHT22;50807;52.436;13.346;2023-07-09T00:09:00;25.40;48.30
15844;DHT22;50807;52.436;13.346;2023-07-09T00:09:31;25.40;48.20
15844;DHT22;50807;52.436;13.346;2023-07-09T00:10:13;25.40;48.20
15844;DHT22;50807;52.436;13.346;2023-07-09T00:10:45;25.40;48.30
15844;DHT22;50807;52.436;13.346;2023-07-09T00:11:16;25.40;48.20
15844;DHT22;50807;52.436;13.346;2023-07-09T00:11:48;25.40;48.30
15844;DHT22;50807;52.436;13.346;2023-07-09T00:12:21;25.30;48.30
15844;DHT22;50807;52.436;13.346;2023-07-09T00:12:52;25.40;48.40
15844;DHT22;50807;52.436;13.346;2023-07-09T00:13:23;25.30;48.30
15844;DHT22;50807;52.436;13.346;2023-07-09T00:13:55;25.30;48.40
15844;DHT22;50807;52.436;13.346;2023-07-09T00:14:27;25.30;48.40
15844;DHT22;50807;52.436;13.346;2023-07-09T00:14:58;25.30;48.50
15844;DHT22;50807;52.436;13.346;2023-07-09T00:15:29;25.30;48.50
15844;DHT22;50807;52.436;13.346;2023-07-09T00:16:06;25.30;48.50
15844;DHT22;50807;52.436;13.346;2023-07-09T00:16:43;25.20;48.50
15844;DHT22;50807;52.436;13.346;2023-07-09T00:17:21;25.20;48.50
15844;DHT22;50807;52.436;13.346;2023-07-09T00:17:56;25.20;48.50
15844;DHT22;50807;52.436;13.346;2023-07-09T00:18:30;25.20;48.50
15844;DHT22;50807;52.436;13.346;2023-07-09T00:19:01;25.20;48.50
15844;DHT22;50807;52.436;13.346;2023-07-09T00:19:32;25.20;48.60
15844;DHT22;50807;52.436;13.346;2023-07-09T00:20:04;25.20;48.60
15844;DHT22;50807;52.436;13.346;2023-07-09T00:20:41;25.20;48.60
15844;DHT22;50807;52.436;13.346;2023-07-09T00:21:13;25.20;48.60
15844;DHT22;50807;52.436;13.346;2023-07-09T00:21:47;25.20;48.70
15844;DHT22;50807;52.436;13.346;2023-07-09T00:22:19;25.20;48.80
15844;DHT22;50807;52.436;13.346;2023-07-09T00:22:51;25.20;48.80
15844;DHT22;50807;52.436;13.346;2023-07-09T00:23:22;25.20;48.80
15844;DHT22;50807;52.436;13.346;2023-07-09T00:23:53;25.20;48.90
15844;DHT22;50807;52.436;13.346;2023-07-09T00:24:23;25.10;48.80
15844;DHT22;50807;52.436;13.346;2023-07-09T00:24:55;25.10;48.80
15844;DHT22;50807;52.436;13.346;2023-07-09T00:25:28;25.10;48.80
15844;DHT22;50807;52.436;13.346;2023-07-09T00:25:59;25.10;48.90
15844;DHT22;50807;52.436;13.346;2023-07-09T00:26:31;25.10;48.90
15844;DHT22;50807;52.436;13.346;2023-07-09T00:27:07;25.10;49.00
15844;DHT22;50807;52.436;13.346;2023-07-09T00:27:39;25.10;49.00
15844;DHT22;50807;52.436;13.346;2023-07-09T00:28:12;25.10;49.00
15844;DHT22;50807;52.436;13.346;2023-07-09T00:28:45;25.10;49.00
15844;DHT22;50807;52.436;13.346;2023-07-09T00:29:16;25.10;49.00
15844;DHT22;50807;52.436;13.346;2023-07-09T00:29:47;25.10;49.10
15844;DHT22;50807;52.436;13.346;2023-07-09T00:30:20;25.10;49.10
15844;DHT22;50807;52.436;13.346;2023-07-09T00:30:53;25.00;49.10
15844;DHT22;50807;52.436;13.346;2023-07-09T00:31:24;25.00;49.10
15844;DHT22;50807;52.436;13.346;2023-07-09T00:31:56;25.00;49.20
15844;DHT22;50807;52.436;13.346;2023-07-09T00:32:26;25.00;49.20
15844;DHT22;50807;52.436;13.346;2023-07-09T00:32:58;25.00;49.20
15844;DHT22;50807;52.436;13.346;2023-07-09T00:33:29;25.00;49.20
15844;DHT22;50807;52.436;13.346;2023-07-09T00:34:01;25.00;49.30
15844;DHT22;50807;52.436;13.346;2023-07-09T00:34:33;25.00;49.30
15844;DHT22;50807;52.436;13.346;2023-07-09T00:35:04;25.00;49.30
15844;DHT22;50807;52.436;13.346;2023-07-09T00:35:36;25.00;49.30
15844;DHT22;50807;52.436;13.346;2023-07-09T00:36:14;25.00;49.40
15844;DHT22;50807;52.436;13.346;2023-07-09T00:36:47;24.90;49.40
15844;DHT22;50807;52.436;13.346;2023-07-09T00:37:19;24.90;49.30
15844;DHT22;50807;52.436;13.346;2023-07-09T00:37:56;25.00;49.40
15844;DHT22;50807;52.436;13.346;2023-07-09T00:38:30;25.00;49.40
15844;DHT22;50807;52.436;13.346;2023-07-09T00:39:13;24.90;49.40
15844;DHT22;50807;52.436;13.346;2023-07-09T00:39:48;24.90;49.50
15844;DHT22;50807;52.436;13.346;2023-07-09T00:40:21;24.90;49.40
15844;DHT22;50807;52.436;13.346;2023-07-09T00:41:04;24.90;49.50
15844;DHT22;50807;52.436;13.346;2023-07-09T00:41:37;24.90;49.50
15844;DHT22;50807;52.436;13.346;2023-07-09T00:42:12;24.90;49.50
15844;DHT22;50807;52.436;13.346;2023-07-09T00:42:49;24.90;49.60
15844;DHT22;50807;52.436;13.346;2023-07-09T00:43:23;24.90;49.50
15844;DHT22;50807;52.436;13.346;2023-07-09T00:43:54;24.90;49.50
15844;DHT22;50807;52.436;13.346;2023-07-09T00:44:28;24.90;49.60
15844;DHT22;50807;52.436;13.346;2023-07-09T00:44:59;24.90;49.60
15844;DHT22;50807;52.436;13.346;2023-07-09T00:45:31;24.90;49.70
15844;DHT22;50807;52.436;13.346;2023-07-09T00:46:14;24.90;49.60
15844;DHT22;50807;52.436;13.346;2023-07-09T00:47:24;24.90;49.70
15844;DHT22;50807;52.436;13.346;2023-07-09T00:48:01;24.90;49.60
15844;DHT22;50807;52.436;13.346;2023-07-09T00:48:35;24.90;49.60
15844;DHT22;50807;52.436;13.346;2023-07-09T00:49:09;24.90;49.60
15844;DHT22;50807;52.436;13.346;2023-07-09T00:49:41;24.90;49.70
15844;DHT22;50807;52.436;13.346;2023-07-09T00:51:15;24.80;49.70
15844;DHT22;50807;52.436;13.346;2023-07-09T00:51:50;24.80;49.60
15844;DHT22;50807;52.436;13.346;2023-07-09T00:52:28;24.80;49.60
15844;DHT22;50807;52.436;13.346;2023-07-09T00:53:12;24.90;49.70
15844;DHT22;50807;52.436;13.346;2023-07-09T00:53:50;24.80;49.70
15844;DHT22;50807;52.436;13.346;2023-07-09T00:54:28;24.80;49.60
15844;DHT22;50807;52.436;13.346;2023-07-09T00:55:08;24.80;49.70
15844;DHT22;50807;52.436;13.346;2023-07-09T00:55:51;24.80;49.70
15844;DHT22;50807;52.436;13.346;2023-07-09T00:56:29;24.80;49.80
15844;DHT22;50807;52.436;13.346;2023-07-09T00:57:05;24.80;49.80
15844;DHT22;50807;52.436;13.346;2023-07-09T00:57:38;24.70;49.80
15844;DHT22;50807;52.436;13.346;2023-07-09T00:58:14;24.70;49.80
15844;DHT22;50807;52.436;13.346;2023-07-09T00:58:46;24.70;49.90
15844;DHT22;50807;52.436;13.346;2023-07-09T00:59:23;24.70;49.90
15844;DHT22;50807;52.436;13.346;2023-07-09T00:59:58;24.70;50.00
15844;DHT22;50807;52.436;13.346;2023-07-09T01:00:41;24.70;50.00
15844;DHT22;50807;52.436;13.346;2023-07-09T01:01:18;24.70;50.00
15844;DHT22;50807;52.436;13.346;2023-07-09T01:01:52;24.70;50.10
15844;DHT22;50807;52.436;13.346;2023-07-09T01:02:26;24.70;50.10
15844;DHT22;50807;52.436;13.346;2023-07-09T01:02:58;24.70;50.10
15844;DHT22;50807;52.436;13.346;2023-07-09T01:03:33;24.70;50.20
15844;DHT22;50807;52.436;13.346;2023-07-09T01:04:08;24.60;50.20
15844;DHT22;50807;52.436;13.346;2023-07-09T01:04:41;24.60;50.20
15844;DHT22;50807;52.436;13.346;2023-07-09T01:05:13;24.60;50.20
15844;DHT22;50807;52.436;13.346;2023-07-09T01:05:48;24.60;50.30
15844;DHT22;50807;52.436;13.346;2023-07-09T01:06:28;24.60;50.30
15844;DHT22;50807;52.436;13.346;2023-07-09T01:07:02;24.60;50.40
15844;DHT22;50807;52.436;13.346;2023-07-09T01:07:34;24.60;50.30
15844;DHT22;50807;52.436;13.346;2023-07-09T01:08:05;24.60;50.40
15844;DHT22;50807;52.436;13.346;2023-07-09T01:08:40;24.50;50.40
15844;DHT22;50807;52.436;13.346;2023-07-09T01:09:12;24.50;50.40
15844;DHT22;50807;52.436;13.346;2023-07-09T01:09:42;24.50;50.40
15844;DHT22;50807;52.436;13.346;2023-07-09T01:10:14;24.50;50.40
15844;DHT22;50807;52.436;13.346;2023-07-09T01:10:47;24.50;50.50
15844;DHT22;50807;52.436;13.346;2023-07-09T01:11:19;24.50;50.50
15844;DHT22;50807;52.436;13.346;2023-07-09T01:11:52;24.50;50.60
15844;DHT22;50807;52.436;13.346;2023-07-09T01:12:26;24.50;50.60
15844;DHT22;50807;52.436;13.346;2023-07-09T01:12:58;24.50;50.60
15844;DHT22;50807;52.436;13.346;2023-07-09T01:13:30;24.50;50.60
15844;DHT22;50807;52.436;13.346;2023-07-09T01:14:04;24.50;50.70
15844;DHT22;50807;52.436;13.346;2023-07-09T01:14:38;24.50;50.70
15844;DHT22;50807;52.436;13.346;2023-07-09T01:15:10;24.40;50.70
15844;DHT22;50807;52.436;13.346;2023-07-09T01:15:42;24.50;50.80
15844;DHT22;50807;52.436;13.346;2023-07-09T01:16:12;24.50;50.80
15844;DHT22;50807;52.436;13.346;2023-07-09T01:16:49;24.40;50.80
15844;DHT22;50807;52.436;13.346;2023-07-09T01:17:29;24.40;50.90
15844;DHT22;50807;52.436;13.346;2023-07-09T01:17:59;24.40;50.80
15844;DHT22;50807;52.436;13.346;2023-07-09T01:18:30;24.40;50.90
15844;DHT22;50807;52.436;13.346;2023-07-09T01:19:02;24.40;51.00
15844;DHT22;50807;52.436;13.346;2023-07-09T01:19:38;24.40;51.00
15844;DHT22;50807;52.436;13.346;2023-07-09T01:20:18;24.40;51.00
15844;DHT22;50807;52.436;13.346;2023-07-09T01:20:51;24.30;51.00
15844;DHT22;50807;52.436;13.346;2023-07-09T01:21:31;24.30;51.00
15844;DHT22;50807;52.436;13.346;2023-07-09T01:22:02;24.30;51.00
15844;DHT22;50807;52.436;13.346;2023-07-09T01:22:34;24.30;51.00
15844;DHT22;50807;52.436;13.346;2023-07-09T01:23:07;24.30;51.00
15844;DHT22;50807;52.436;13.346;2023-07-09T01:23:39;24.30;51.10
15844;DHT22;50807;52.436;13.346;2023-07-09T01:24:16;24.30;51.10
15844;DHT22;50807;52.436;13.346;2023-07-09T01:25:09;24.30;51.80
15844;DHT22;50807;52.436;13.346;2023-07-09T01:25:45;24.30;51.10
15844;DHT22;50807;52.436;13.346;2023-07-09T01:26:26;24.30;51.20
15844;DHT22;50807;52.436;13.346;2023-07-09T01:26:57;24.30;51.20
15844;DHT22;50807;52.436;13.346;2023-07-09T01:27:31;24.30;51.20
15844;DHT22;50807;52.436;13.346;2023-07-09T01:28:05;24.30;51.20
15844;DHT22;50807;52.436;13.346;2023-07-09T01:28:35;24.30;51.30
15844;DHT22;50807;52.436;13.346;2023-07-09T01:29:06;24.30;51.30
15844;DHT22;50807;52.436;13.346;2023-07-09T01:29:38;24.30;51.40
15844;DHT22;50807;52.436;13.346;2023-07-09T01:30:12;24.30;51.40
15844;DHT22;50807;52.436;13.346;2023-07-09T01:30:48;24.20;51.40
15844;DHT22;50807;52.436;13.346;2023-07-09T01:31:24;24.30;51.50
15844;DHT22;50807;52.436;13.346;2023-07-09T01:31:54;24.20;51.40
15844;DHT22;50807;52.436;13.346;2023-07-09T01:32:26;24.20;51.50
15844;DHT22;50807;52.436;13.346;2023-07-09T01:32:59;24.20;51.50
15844;DHT22;50807;52.436;13.346;2023-07-09T01:33:31;24.20;51.60
15844;DHT22;50807;52.436;13.346;2023-07-09T01:34:02;24.20;51.70
15844;DHT22;50807;52.436;13.346;2023-07-09T01:34:33;24.20;51.70
15844;DHT22;50807;52.436;13.346;2023-07-09T01:35:06;24.20;51.70
15844;DHT22;50807;52.436;13.346;2023-07-09T01:35:39;24.20;51.80
15844;DHT22;50807;52.436;13.346;2023-07-09T01:36:16;24.20;51.80
15844;DHT22;50807;52.436;13.346;2023-07-09T01:36:53;24.10;51.80
15844;DHT22;50807;52.436;13.346;2023-07-09T01:37:26;24.20;51.80
15844;DHT22;50807;52.436;13.346;2023-07-09T01:37:58;24.20;51.90
15844;DHT22;50807;52.436;13.346;2023-07-09T01:38:30;24.20;51.90
15844;DHT22;50807;52.436;13.346;2023-07-09T01:39:00;24.10;51.80
15844;DHT22;50807;52.436;13.346;2023-07-09T01:39:31;24.10;51.90
15844;DHT22;50807;52.436;13.346;2023-07-09T01:40:03;24.10;51.90
15844;DHT22;50807;52.436;13.346;2023-07-09T01:40:39;24.10;52.00
15844;DHT22;50807;52.436;13.346;2023-07-09T01:41:10;24.10;52.00
15844;DHT22;50807;52.436;13.346;2023-07-09T01:41:43;24.10;52.10
15844;DHT22;50807;52.436;13.346;2023-07-09T01:42:19;24.10;52.10
15844;DHT22;50807;52.436;13.346;2023-07-09T01:42:52;24.10;52.10
15844;DHT22;50807;52.436;13.346;2023-07-09T01:43:26;24.10;52.10
15844;DHT22;50807;52.436;13.346;2023-07-09T01:43:58;24.10;52.10
15844;DHT22;50807;52.436;13.346;2023-07-09T01:44:29;24.10;52.10
15844;DHT22;50807;52.436;13.346;2023-07-09T01:45:00;24.10;52.20
15844;DHT22;50807;52.436;13.346;2023-07-09T01:45:35;24.10;52.20
15844;DHT22;50807;52.436;13.346;2023-07-09T01:46:08;24.10;52.30
15844;DHT22;50807;52.436;13.346;2023-07-09T01:46:39;24.10;52.30
15844;DHT22;50807;52.436;13.346;2023-07-09T01:47:12;24.10;52.30
15844;DHT22;50807;52.436;13.346;2023-07-09T01:47:43;24.00;52.30
15844;DHT22;50807;52.436;13.346;2023-07-09T01:48:15;24.00;52.30
15844;DHT22;50807;52.436;13.346;2023-07-09T01:48:46;24.00;52.40
15844;DHT22;50807;52.436;13.346;2023-07-09T01:49:17;24.00;52.30
15844;DHT22;50807;52.436;13.346;2023-07-09T01:49:50;24.00;52.40
15844;DHT22;50807;52.436;13.346;2023-07-09T01:50:21;24.00;52.50
15844;DHT22;50807;52.436;13.346;2023-07-09T01:50:54;24.00;52.50
15844;DHT22;50807;52.436;13.346;2023-07-09T01:51:27;24.00;52.50
15844;DHT22;50807;52.436;13.346;2023-07-09T01:51:59;24.00;52.60
15844;DHT22;50807;52.436;13.346;2023-07-09T01:52:32;24.00;52.50
15844;DHT22;50807;52.436;13.346;2023-07-09T01:53:04;24.00;52.60
15844;DHT22;50807;52.436;13.346;2023-07-09T01:53:36;24.00;52.60
15844;DHT22;50807;52.436;13.346;2023-07-09T01:54:09;23.90;52.60
15844;DHT22;50807;52.436;13.346;2023-07-09T01:54:40;23.90;52.60
15844;DHT22;50807;52.436;13.346;2023-07-09T01:55:12;23.90;52.60
15844;DHT22;50807;52.436;13.346;2023-07-09T01:55:47;23.90;52.70
15844;DHT22;50807;52.436;13.346;2023-07-09T01:56:18;23.90;52.70
15844;DHT22;50807;52.436;13.346;2023-07-09T01:56:48;23.90;52.70
15844;DHT22;50807;52.436;13.346;2023-07-09T01:57:20;23.90;52.70
15844;DHT22;50807;52.436;13.346;2023-07-09T01:57:53;23.90;52.80
15844;DHT22;50807;52.436;13.346;2023-07-09T01:58:24;23.90;52.80
15844;DHT22;50807;52.436;13.346;2023-07-09T01:58:55;23.90;52.80
15844;DHT22;50807;52.436;13.346;2023-07-09T01:59:31;23.90;52.80
15844;DHT22;50807;52.436;13.346;2023-07-09T02:00:06;23.90;52.80
15844;DHT22;50807;52.436;13.346;2023-07-09T02:00:41;23.90;52.90
15844;DHT22;50807;52.436;13.346;2023-07-09T02:01:15;23.90;52.90
15844;DHT22;50807;52.436;13.346;2023-07-09T02:01:47;23.90;52.90
15844;DHT22;50807;52.436;13.346;2023-07-09T02:02:18;23.90;52.90
15844;DHT22;50807;52.436;13.346;2023-07-09T02:02:51;23.90;53.00
15844;DHT22;50807;52.436;13.346;2023-07-09T02:03:25;23.90;53.00
15844;DHT22;50807;52.436;13.346;2023-07-09T02:03:56;23.90;53.00
15844;DHT22;50807;52.436;13.346;2023-07-09T02:04:27;23.90;53.00
15844;DHT22;50807;52.436;13.346;2023-07-09T02:04:59;23.80;53.00
15844;DHT22;50807;52.436;13.346;2023-07-09T02:05:32;23.80;53.00
15844;DHT22;50807;52.436;13.346;2023-07-09T02:06:04;23.80;53.10
15844;DHT22;50807;52.436;13.346;2023-07-09T02:06:40;23.80;53.10
15844;DHT22;50807;52.436;13.346;2023-07-09T02:07:11;23.80;53.10
15844;DHT22;50807;52.436;13.346;2023-07-09T02:07:43;23.80;53.20
15844;DHT22;50807;52.436;13.346;2023-07-09T02:08:14;23.80;53.20
15844;DHT22;50807;52.436;13.346;2023-07-09T02:08:45;23.80;53.20
15844;DHT22;50807;52.436;13.346;2023-07-09T02:09:16;23.80;53.20
15844;DHT22;50807;52.436;13.346;2023-07-09T02:09:47;23.80;53.20
15844;DHT22;50807;52.436;13.346;2023-07-09T02:10:18;23.80;53.30
15844;DHT22;50807;52.436;13.346;2023-07-09T02:10:49;23.80;53.30
15844;DHT22;50807;52.436;13.346;2023-07-09T02:11:21;23.80;53.40
15844;DHT22;50807;52.436;13.346;2023-07-09T02:11:52;23.80;53.40
15844;DHT22;50807;52.436;13.346;2023-07-09T02:12:23;23.80;53.40
15844;DHT22;50807;52.436;13.346;2023-07-09T02:12:54;23.80;53.40
15844;DHT22;50807;52.436;13.346;2023-07-09T02:13:25;23.70;53.40
15844;DHT22;50807;52.436;13.346;2023-07-09T02:13:56;23.70;53.40
15844;DHT22;50807;52.436;13.346;2023-07-09T02:14:27;23.70;53.40
15844;DHT22;50807;52.436;13.346;2023-07-09T02:14:58;23.70;53.40
15844;DHT22;50807;52.436;13.346;2023-07-09T02:15:29;23.70;53.50
15844;DHT22;50807;52.436;13.346;2023-07-09T02:16:00;23.70;53.50
15844;DHT22;50807;52.436;13.346;2023-07-09T02:16:31;23.70;53.50
15844;DHT22;50807;52.436;13.346;2023-07-09T02:17:03;23.70;53.50
15844;DHT22;50807;52.436;13.346;2023-07-09T02:17:34;23.70;53.60
15844;DHT22;50807;52.436;13.346;2023-07-09T02:18:05;23.70;53.60
15844;DHT22;50807;52.436;13.346;2023-07-09T02:18:36;23.70;53.60
15844;DHT22;50807;52.436;13.346;2023-07-09T02:19:07;23.70;53.60
15844;DHT22;50807;52.436;13.346;2023-07-09T02:19:39;23.70;53.60
15844;DHT22;50807;52.436;13.346;2023-07-09T02:20:11;23.70;53.70
15844;DHT22;50807;52.436;13.346;2023-07-09T02:20:45;23.70;53.70
15844;DHT22;50807;52.436;13.346;2023-07-09T02:21:16;23.70;53.70
15844;DHT22;50807;52.436;13.346;2023-07-09T02:21:48;23.70;53.70
15844;DHT22;50807;52.436;13.346;2023-07-09T02:22:18;23.70;53.70
15844;DHT22;50807;52.436;13.346;2023-07-09T02:22:50;23.70;53.80
15844;DHT22;50807;52.436;13.346;2023-07-09T02:23:26;23.70;53.80
15844;DHT22;50807;52.436;13.346;2023-07-09T02:23:57;23.70;53.90
15844;DHT22;50807;52.436;13.346;2023-07-09T02:24:27;23.70;53.90
15844;DHT22;50807;52.436;13.346;2023-07-09T02:24:59;23.70;53.90
15844;DHT22;50807;52.436;13.346;2023-07-09T02:25:30;23.70;54.00
15844;DHT22;50807;52.436;13.346;2023-07-09T02:26:01;23.70;54.00
15844;DHT22;50807;52.436;13.346;2023-07-09T02:26:32;23.70;54.10
15844;DHT22;50807;52.436;13.346;2023-07-09T02:27:06;23.70;54.10
15844;DHT22;50807;52.436;13.346;2023-07-09T02:27:39;23.70;54.10
15844;DHT22;50807;52.436;13.346;2023-07-09T02:28:10;23.70;54.10
15844;DHT22;50807;52.436;13.346;2023-07-09T02:28:41;23.70;54.20
15844;DHT22;50807;52.436;13.346;2023-07-09T02:29:12;23.70;54.20
15844;DHT22;50807;52.436;13.346;2023-07-09T02:29:43;23.70;54.20
15844;DHT22;50807;52.436;13.346;2023-07-09T02:30:14;23.70;54.20
15844;DHT22;50807;52.436;13.346;2023-07-09T02:30:45;23.70;54.20
15844;DHT22;50807;52.436;13.346;2023-07-09T02:31:16;23.70;54.20
15844;DHT22;50807;52.436;13.346;2023-07-09T02:31:48;23.60;54.20
15844;DHT22;50807;52.436;13.346;2023-07-09T02:32:23;23.60;54.30
15844;DHT22;50807;52.436;13.346;2023-07-09T02:32:57;23.60;54.30
15844;DHT22;50807;52.436;13.346;2023-07-09T02:33:27;23.60;54.20
15844;DHT22;50807;52.436;13.346;2023-07-09T02:34:03;23.60;54.30
15844;DHT22;50807;52.436;13.346;2023-07-09T02:34:34;23.60;54.30
15844;DHT22;50807;52.436;13.346;2023-07-09T02:35:06;23.60;54.40
15844;DHT22;50807;52.436;13.346;2023-07-09T02:35:37;23.60;54.50
15844;DHT22;50807;52.436;13.346;2023-07-09T02:36:09;23.60;54.50
15844;DHT22;50807;52.436;13.346;2023-07-09T02:36:39;23.60;54.50
15844;DHT22;50807;52.436;13.346;2023-07-09T02:37:15;23.60;54.60
15844;DHT22;50807;52.436;13.346;2023-07-09T02:37:48;23.60;54.60
15844;DHT22;50807;52.436;13.346;2023-07-09T02:38:20;23.60;54.60
15844;DHT22;50807;52.436;13.346;2023-07-09T02:38:50;23.60;54.60
15844;DHT22;50807;52.436;13.346;2023-07-09T02:39:22;23.60;54.60
15844;DHT22;50807;52.436;13.346;2023-07-09T02:39:53;23.60;54.70
15844;DHT22;50807;52.436;13.346;2023-07-09T02:40:25;23.60;54.70
15844;DHT22;50807;52.436;13.346;2023-07-09T02:40:56;23.60;54.70
15844;DHT22;50807;52.436;13.346;2023-07-09T02:41:27;23.60;54.80
15844;DHT22;50807;52.436;13.346;2023-07-09T02:41:57;23.60;54.80
15844;DHT22;50807;52.436;13.346;2023-07-09T02:42:30;23.50;54.80
15844;DHT22;50807;52.436;13.346;2023-07-09T02:43:00;23.50;54.80
15844;DHT22;50807;52.436;13.346;2023-07-09T02:43:31;23.50;54.80
15844;DHT22;50807;52.436;13.346;2023-07-09T02:44:02;23.50;54.90
15844;DHT22;50807;52.436;13.346;2023-07-09T02:44:33;23.50;54.90
15844;DHT22;50807;52.436;13.346;2023-07-09T02:45:05;23.50;54.90
15844;DHT22;50807;52.436;13.346;2023-07-09T02:45:36;23.50;55.00
15844;DHT22;50807;52.436;13.346;2023-07-09T02:46:08;23.50;55.00
15844;DHT22;50807;52.436;13.346;2023-07-09T02:46:39;23.50;55.10
15844;DHT22;50807;52.436;13.346;2023-07-09T02:47:10;23.50;55.10
15844;DHT22;50807;52.436;13.346;2023-07-09T02:47:42;23.50;55.20
15844;DHT22;50807;52.436;13.346;2023-07-09T02:48:14;23.50;55.20
15844;DHT22;50807;52.436;13.346;2023-07-09T02:48:44;23.50;55.30
15844;DHT22;50807;52.436;13.346;2023-07-09T02:49:15;23.50;55.30
15844;DHT22;50807;52.436;13.346;2023-07-09T02:49:46;23.50;55.30
15844;DHT22;50807;52.436;13.346;2023-07-09T02:50:18;23.50;55.30
15844;DHT22;50807;52.436;13.346;2023-07-09T02:50:49;23.50;55.40
15844;DHT22;50807;52.436;13.346;2023-07-09T02:51:19;23.50;55.40
15844;DHT22;50807;52.436;13.346;2023-07-09T02:51:50;23.50;55.50
15844;DHT22;50807;52.436;13.346;2023-07-09T02:52:23;23.50;55.50
15844;DHT22;50807;52.436;13.346;2023-07-09T02:52:54;23.40;55.50
15844;DHT22;50807;52.436;13.346;2023-07-09T02:53:25;23.40;55.50
15844;DHT22;50807;52.436;13.346;2023-07-09T02:53:57;23.40;55.60
15844;DHT22;50807;52.436;13.346;2023-07-09T02:54:31;23.40;55.60
15844;DHT22;50807;52.436;13.346;2023-07-09T02:55:03;23.40;55.60
15844;DHT22;50807;52.436;13.346;2023-07-09T02:55:34;23.40;55.70
15844;DHT22;50807;52.436;13.346;2023-07-09T02:56:05;23.40;55.70
15844;DHT22;50807;52.436;13.346;2023-07-09T02:56:36;23.40;55.70
15844;DHT22;50807;52.436;13.346;2023-07-09T02:57:07;23.40;55.70
15844;DHT22;50807;52.436;13.346;2023-07-09T02:57:38;23.40;55.80
15844;DHT22;50807;52.436;13.346;2023-07-09T02:58:10;23.40;55.80
15844;DHT22;50807;52.436;13.346;2023-07-09T02:58:40;23.40;55.80
15844;DHT22;50807;52.436;13.346;2023-07-09T02:59:11;23.40;55.90
15844;DHT22;50807;52.436;13.346;2023-07-09T02:59:42;23.40;55.90
15844;DHT22;50807;52.436;13.346;2023-07-09T03:00:14;23.40;55.90
15844;DHT22;50807;52.436;13.346;2023-07-09T03:00:48;23.40;56.00
15844;DHT22;50807;52.436;13.346;2023-07-09T03:01:23;23.40;56.00
15844;DHT22;50807;52.436;13.346;2023-07-09T03:01:55;23.40;56.10
15844;DHT22;50807;52.436;13.346;2023-07-09T03:02:27;23.40;56.10
15844;DHT22;50807;52.436;13.346;2023-07-09T03:02:58;23.40;56.10
15844;DHT22;50807;52.436;13.346;2023-07-09T03:03:29;23.40;56.10
15844;DHT22;50807;52.436;13.346;2023-07-09T03:04:00;23.40;56.20
15844;DHT22;50807;52.436;13.346;2023-07-09T03:04:33;23.40;56.20
15844;DHT22;50807;52.436;13.346;2023-07-09T03:05:04;23.40;56.20
15844;DHT22;50807;52.436;13.346;2023-07-09T03:05:35;23.40;56.30
15844;DHT22;50807;52.436;13.346;2023-07-09T03:06:06;23.30;56.20
15844;DHT22;50807;52.436;13.346;2023-07-09T03:06:38;23.30;56.30
15844;DHT22;50807;52.436;13.346;2023-07-09T03:07:10;23.30;56.30
15844;DHT22;50807;52.436;13.346;2023-07-09T03:07:42;23.30;56.40
15844;DHT22;50807;52.436;13.346;2023-07-09T03:08:14;23.30;56.50
15844;DHT22;50807;52.436;13.346;2023-07-09T03:08:45;23.30;56.50
15844;DHT22;50807;52.436;13.346;2023-07-09T03:09:15;23.30;56.50
15844;DHT22;50807;52.436;13.346;2023-07-09T03:09:46;23.30;56.60
15844;DHT22;50807;52.436;13.346;2023-07-09T03:10:18;23.30;56.60
15844;DHT22;50807;52.436;13.346;2023-07-09T03:10:49;23.30;56.70
15844;DHT22;50807;52.436;13.346;2023-07-09T03:11:20;23.30;56.70
15844;DHT22;50807;52.436;13.346;2023-07-09T03:11:51;23.30;56.80
15844;DHT22;50807;52.436;13.346;2023-07-09T03:12:23;23.30;56.80
15844;DHT22;50807;52.436;13.346;2023-07-09T03:12:53;23.30;56.80
15844;DHT22;50807;52.436;13.346;2023-07-09T03:13:24;23.30;56.90
15844;DHT22;50807;52.436;13.346;2023-07-09T03:13:55;23.30;57.60
15844;DHT22;50807;52.436;13.346;2023-07-09T03:14:27;23.30;57.00
15844;DHT22;50807;52.436;13.346;2023-07-09T03:14:58;23.30;57.00
15844;DHT22;50807;52.436;13.346;2023-07-09T03:15:30;23.20;57.10
15844;DHT22;50807;52.436;13.346;2023-07-09T03:16:02;23.20;57.20
15844;DHT22;50807;52.436;13.346;2023-07-09T03:16:34;23.20;57.10
15844;DHT22;50807;52.436;13.346;2023-07-09T03:17:05;23.20;57.10
15844;DHT22;50807;52.436;13.346;2023-07-09T03:17:36;23.20;57.20
15844;DHT22;50807;52.436;13.346;2023-07-09T03:18:07;23.20;57.20
15844;DHT22;50807;52.436;13.346;2023-07-09T03:18:38;23.20;57.30
15844;DHT22;50807;52.436;13.346;2023-07-09T03:19:09;23.20;57.40
15844;DHT22;50807;52.436;13.346;2023-07-09T03:19:40;23.20;57.40
15844;DHT22;50807;52.436;13.346;2023-07-09T03:20:12;23.20;57.40
15844;DHT22;50807;52.436;13.346;2023-07-09T03:20:43;23.20;57.50
15844;DHT22;50807;52.436;13.346;2023-07-09T03:21:14;23.20;57.60
15844;DHT22;50807;52.436;13.346;2023-07-09T03:21:45;23.20;57.60
15844;DHT22;50807;52.436;13.346;2023-07-09T03:22:16;23.20;57.70
15844;DHT22;50807;52.436;13.346;2023-07-09T03:22:48;23.20;57.70
15844;DHT22;50807;52.436;13.346;2023-07-09T03:23:19;23.20;57.80
15844;DHT22;50807;52.436;13.346;2023-07-09T03:23:50;23.20;57.80
15844;DHT22;50807;52.436;13.346;2023-07-09T03:24:22;23.20;57.90
15844;DHT22;50807;52.436;13.346;2023-07-09T03:24:52;23.20;58.00